createdAt,value
2017-12-23T00:01:17.268Z,5.31
2017-12-23T00:03:44.851Z,5.37
2017-12-23T00:06:12.431Z,5.39
2017-12-23T00:08:40.117Z,5.38
2017-12-23T00:11:07.736Z,5.37
2017-12-23T00:13:35.395Z,5.43
2017-12-23T00:16:03.063Z,5.34
2017-12-23T00:18:30.680Z,5.34
2017-12-23T00:20:58.295Z,5.36
2017-12-23T00:23:25.916Z,5.36
2017-12-23T00:25:53.499Z,5.39
2017-12-23T00:28:21.083Z,5.38
2017-12-23T00:30:48.668Z,5.32
2017-12-23T00:33:16.247Z,5.36
2017-12-23T00:35:43.833Z,5.35
2017-12-23T00:38:11.495Z,5.35
2017-12-23T00:40:39.159Z,5.46
2017-12-23T00:43:06.741Z,5.50
2017-12-23T00:45:34.995Z,5.40
2017-12-23T00:48:02.589Z,5.47
2017-12-23T00:50:30.172Z,5.33
2017-12-23T00:52:57.751Z,5.39
2017-12-23T00:55:25.416Z,5.38
2017-12-23T00:57:53.474Z,5.44
2017-12-23T01:00:21.200Z,5.41
2017-12-23T01:02:48.783Z,5.50
2017-12-23T01:05:16.367Z,5.34
2017-12-23T01:07:44.011Z,5.38
2017-12-23T01:10:11.640Z,5.48
2017-12-23T01:12:39.302Z,5.51
2017-12-23T01:15:06.887Z,5.47
2017-12-23T01:17:34.564Z,5.43
2017-12-23T01:20:02.151Z,5.40
2017-12-23T01:22:29.770Z,5.45
2017-12-23T01:24:57.343Z,5.45
2017-12-23T01:27:24.924Z,5.41
2017-12-23T01:29:52.503Z,5.51
2017-12-23T01:32:20.124Z,5.46
2017-12-23T01:34:47.704Z,5.48
2017-12-23T01:37:15.285Z,5.38
2017-12-23T01:39:42.868Z,5.43
2017-12-23T01:42:10.444Z,5.32
2017-12-23T01:44:38.119Z,5.25
2017-12-23T01:47:05.710Z,5.25
2017-12-23T01:49:33.359Z,5.38
2017-12-23T01:52:00.999Z,5.32
2017-12-23T01:54:28.622Z,5.37
2017-12-23T01:56:56.200Z,5.30
2017-12-23T01:59:23.774Z,5.26
2017-12-23T02:01:51.356Z,5.32
2017-12-23T02:04:19.016Z,5.35
2017-12-23T02:06:46.628Z,5.32
2017-12-23T02:09:14.207Z,5.39
2017-12-23T02:11:42.931Z,5.37
2017-12-23T02:14:10.591Z,5.36
2017-12-23T02:16:39.826Z,5.23
2017-12-23T02:19:07.399Z,5.39
2017-12-23T02:21:35.043Z,5.32
2017-12-23T02:24:02.623Z,5.32
2017-12-23T02:26:30.318Z,5.29
2017-12-23T02:28:57.894Z,5.31
2017-12-23T02:31:25.468Z,5.29
2017-12-23T02:33:53.045Z,5.30
2017-12-23T02:36:20.622Z,5.31
2017-12-23T02:38:48.201Z,5.30
2017-12-23T02:41:15.811Z,5.40
2017-12-23T02:43:43.498Z,5.32
2017-12-23T02:46:11.074Z,5.29
2017-12-23T02:48:38.651Z,5.44
2017-12-23T02:51:06.232Z,5.42
2017-12-23T02:53:33.857Z,5.38
2017-12-23T02:56:01.436Z,5.47
2017-12-23T02:58:29.036Z,5.44
2017-12-23T03:00:56.613Z,5.47
2017-12-23T03:03:24.183Z,5.33
2017-12-23T03:05:51.803Z,5.34
2017-12-23T03:08:19.379Z,5.41
2017-12-23T03:10:46.958Z,5.41
2017-12-23T03:13:14.537Z,5.34
2017-12-23T03:15:42.110Z,5.50
2017-12-23T03:18:09.689Z,5.43
2017-12-23T03:20:37.300Z,5.45
2017-12-23T03:23:04.901Z,5.40
2017-12-23T03:25:32.643Z,5.50
2017-12-23T03:28:00.231Z,5.46
2017-12-23T03:30:27.863Z,5.53
2017-12-23T03:32:55.569Z,5.46
2017-12-23T03:35:23.158Z,5.49
2017-12-23T03:37:50.856Z,5.31
2017-12-23T03:40:18.516Z,5.21
2017-12-23T03:42:46.128Z,5.20
2017-12-23T03:45:13.746Z,5.13
2017-12-23T03:47:41.400Z,5.29
2017-12-23T03:50:09.063Z,5.25
2017-12-23T03:52:36.671Z,5.28
2017-12-23T03:55:04.291Z,5.23
2017-12-23T03:57:31.987Z,5.13
2017-12-23T03:59:59.598Z,5.16
2017-12-23T04:02:27.218Z,5.11
2017-12-23T04:04:54.795Z,5.14
2017-12-23T04:07:22.502Z,5.05
2017-12-23T04:09:50.089Z,5.09
2017-12-23T04:12:17.707Z,5.07
2017-12-23T04:14:46.479Z,5.06
2017-12-23T04:17:14.099Z,5.06
2017-12-23T04:19:41.679Z,4.90
2017-12-23T04:22:09.254Z,4.97
2017-12-23T04:24:36.838Z,4.95
2017-12-23T04:27:04.423Z,4.89
2017-12-23T04:29:32.001Z,4.97
2017-12-23T04:31:59.686Z,4.90
2017-12-23T04:34:27.264Z,4.92
2017-12-23T04:36:54.906Z,4.99
2017-12-23T04:39:22.514Z,4.99
2017-12-23T04:41:50.139Z,4.97
2017-12-23T04:44:17.723Z,5.01
2017-12-23T04:46:45.303Z,5.03
2017-12-23T04:49:12.881Z,4.91
2017-12-23T04:51:40.466Z,4.92
2017-12-23T04:54:08.042Z,4.84
2017-12-23T04:56:35.626Z,4.90
2017-12-23T04:59:04.176Z,4.95
2017-12-23T05:01:31.754Z,4.92
2017-12-23T05:03:59.332Z,4.92
2017-12-23T05:06:26.958Z,4.90
2017-12-23T05:08:54.532Z,4.87
2017-12-23T05:11:22.199Z,4.88
2017-12-23T05:13:49.774Z,4.86
2017-12-23T05:16:17.346Z,4.88
2017-12-23T05:18:44.935Z,4.84
2017-12-23T05:21:12.511Z,4.95
2017-12-23T05:23:40.090Z,4.88
2017-12-23T05:26:07.666Z,4.86
2017-12-23T05:28:35.247Z,4.83
2017-12-23T05:31:02.916Z,4.99
2017-12-23T05:33:30.494Z,4.98
2017-12-23T05:35:58.078Z,4.96
2017-12-23T05:38:25.653Z,4.89
2017-12-23T05:40:53.228Z,4.95
2017-12-23T05:43:20.846Z,4.98
2017-12-23T05:45:48.449Z,5.01
2017-12-23T05:48:16.067Z,5.02
2017-12-23T05:50:43.639Z,5.10
2017-12-23T05:53:11.256Z,5.14
2017-12-23T05:55:38.887Z,5.12
2017-12-23T05:58:06.470Z,5.06
2017-12-23T06:00:34.204Z,5.09
2017-12-23T06:03:02.698Z,5.17
2017-12-23T06:05:30.271Z,5.06
2017-12-23T06:07:57.847Z,5.14
2017-12-23T06:10:25.426Z,5.06
2017-12-23T06:12:53.046Z,5.10
2017-12-23T06:15:20.750Z,5.10
2017-12-23T06:17:48.415Z,5.05
2017-12-23T06:20:16.071Z,5.01
2017-12-23T06:22:43.656Z,5.10
2017-12-23T06:25:11.272Z,5.01
2017-12-23T06:27:38.860Z,5.04
2017-12-23T06:30:06.480Z,5.04
2017-12-23T06:32:34.082Z,5.04
2017-12-23T06:35:01.698Z,5.15
2017-12-23T06:37:29.406Z,5.12
2017-12-23T06:39:56.990Z,5.11
2017-12-23T06:42:24.605Z,5.08
2017-12-23T06:44:52.307Z,5.08
2017-12-23T06:47:19.960Z,5.16
2017-12-23T06:49:47.550Z,5.13
2017-12-23T06:52:15.280Z,5.07
2017-12-23T06:54:42.858Z,5.09
2017-12-23T06:57:10.475Z,5.22
2017-12-23T06:59:38.096Z,5.28
2017-12-23T07:02:05.682Z,5.30
2017-12-23T07:04:33.259Z,5.25
2017-12-23T07:07:00.835Z,5.27
2017-12-23T07:09:28.616Z,5.24
2017-12-23T07:11:56.195Z,5.36
2017-12-23T07:14:23.840Z,5.41
2017-12-23T07:16:51.419Z,5.51
2017-12-23T07:19:19.040Z,5.48
2017-12-23T07:21:46.633Z,5.55
2017-12-23T07:24:15.211Z,5.61
2017-12-23T07:26:42.794Z,5.69
2017-12-23T07:29:10.417Z,5.72
2017-12-23T07:31:38.034Z,5.70
2017-12-23T07:34:05.620Z,5.84
2017-12-23T07:36:33.244Z,5.87
2017-12-23T07:39:01.702Z,5.87
2017-12-23T07:41:29.400Z,5.97
2017-12-23T07:43:56.983Z,6.03
2017-12-23T07:46:24.605Z,6.03
2017-12-23T07:48:52.183Z,6.03
2017-12-23T07:51:19.759Z,6.12
2017-12-23T07:53:47.340Z,6.12
2017-12-23T07:56:14.924Z,6.11
2017-12-23T07:58:42.506Z,6.21
2017-12-23T08:01:10.120Z,6.23
2017-12-23T08:03:37.745Z,6.31
2017-12-23T08:06:05.415Z,6.34
2017-12-23T08:08:33.042Z,6.32
2017-12-23T08:11:00.707Z,6.32
2017-12-23T08:13:28.335Z,6.41
2017-12-23T08:15:55.930Z,6.38
2017-12-23T08:18:23.515Z,6.41
2017-12-23T08:20:51.142Z,6.48
2017-12-23T08:23:18.724Z,6.38
2017-12-23T08:25:46.308Z,6.52
2017-12-23T08:28:13.886Z,6.58
2017-12-23T08:30:41.514Z,6.62
2017-12-23T08:33:09.095Z,6.64
2017-12-23T08:35:36.682Z,6.61
2017-12-23T08:38:04.270Z,6.69
2017-12-23T08:40:31.852Z,6.62
2017-12-23T08:42:59.431Z,6.56
2017-12-23T08:45:27.019Z,6.65
2017-12-23T08:47:54.599Z,6.60
2017-12-23T08:50:22.247Z,6.68
2017-12-23T08:52:49.859Z,6.76
2017-12-23T08:55:17.444Z,6.70
2017-12-23T08:57:45.024Z,6.70
2017-12-23T09:00:12.689Z,6.66
2017-12-23T09:02:40.273Z,6.69
2017-12-23T09:05:07.951Z,6.79
2017-12-23T09:07:35.538Z,6.76
2017-12-23T09:10:03.124Z,6.80
2017-12-23T09:12:30.722Z,6.95
2017-12-23T09:14:58.328Z,6.87
2017-12-23T09:17:25.916Z,6.91
2017-12-23T09:19:53.504Z,6.86
2017-12-23T09:22:21.220Z,6.79
2017-12-23T09:24:49.475Z,6.82
2017-12-23T09:27:17.059Z,6.83
2017-12-23T09:29:44.696Z,6.87
2017-12-23T09:32:12.368Z,6.96
2017-12-23T09:34:39.955Z,7.05
2017-12-23T09:37:07.621Z,7.10
2017-12-23T09:39:35.255Z,7.10
2017-12-23T09:42:02.839Z,7.12
2017-12-23T09:44:30.436Z,7.20
2017-12-23T09:46:58.055Z,7.19
2017-12-23T09:49:25.645Z,7.25
2017-12-23T09:51:53.308Z,7.22
2017-12-23T09:54:21.481Z,7.51
2017-12-23T09:56:49.112Z,7.53
2017-12-23T09:59:16.724Z,7.75
2017-12-23T10:01:44.303Z,7.71
2017-12-23T10:04:11.916Z,7.78
2017-12-23T10:06:39.515Z,7.70
2017-12-23T10:09:07.134Z,7.91
2017-12-23T10:11:34.748Z,7.87
2017-12-23T10:14:02.379Z,7.85
2017-12-23T10:16:29.963Z,7.82
2017-12-23T10:18:57.582Z,7.83
2017-12-23T10:21:25.263Z,8.08
2017-12-23T10:23:53.009Z,7.96
2017-12-23T10:26:20.591Z,7.85
2017-12-23T10:28:48.296Z,7.70
2017-12-23T10:31:15.889Z,7.69
2017-12-23T10:33:43.535Z,7.68
2017-12-23T10:36:11.119Z,7.74
2017-12-23T10:38:38.755Z,7.63
2017-12-23T10:41:06.466Z,7.67
2017-12-23T10:43:34.055Z,7.70
2017-12-23T10:46:01.678Z,7.66
2017-12-23T10:48:29.267Z,7.69
2017-12-23T10:50:56.881Z,7.61
2017-12-23T10:53:24.466Z,7.60
2017-12-23T10:55:52.085Z,7.66
2017-12-23T10:58:19.767Z,7.67
2017-12-23T11:00:47.394Z,7.63
2017-12-23T11:03:14.975Z,7.73
2017-12-23T11:05:42.596Z,7.76
2017-12-23T11:08:10.251Z,7.80
2017-12-23T11:10:37.832Z,7.85
2017-12-23T11:13:05.452Z,7.81
2017-12-23T11:15:33.088Z,7.92
2017-12-23T11:18:00.644Z,7.87
2017-12-23T11:20:28.219Z,7.92
2017-12-23T11:22:55.797Z,7.93
2017-12-23T11:25:23.376Z,7.97
2017-12-23T11:27:50.955Z,7.98
2017-12-23T11:30:18.533Z,8.01
2017-12-23T11:32:46.112Z,8.04
2017-12-23T11:35:13.691Z,8.05
2017-12-23T11:37:41.273Z,8.15
2017-12-23T11:40:08.843Z,8.18
2017-12-23T11:42:36.460Z,8.24
2017-12-23T11:45:04.041Z,8.30
2017-12-23T11:47:31.623Z,8.36
2017-12-23T11:49:59.205Z,8.36
2017-12-23T11:52:26.784Z,8.42
2017-12-23T11:54:54.360Z,8.50
2017-12-23T11:57:21.939Z,8.52
2017-12-23T11:59:49.515Z,8.56
2017-12-23T12:02:17.086Z,8.55
2017-12-23T12:04:44.661Z,8.60
2017-12-23T12:07:12.273Z,8.73
2017-12-23T12:09:40.663Z,8.67
2017-12-23T12:12:08.278Z,8.68
2017-12-23T12:14:35.855Z,8.81
2017-12-23T12:17:03.445Z,8.85
2017-12-23T12:19:31.015Z,8.84
2017-12-23T12:21:58.628Z,8.90
2017-12-23T12:24:26.244Z,8.92
2017-12-23T12:26:53.816Z,8.96
2017-12-23T12:29:21.388Z,8.90
2017-12-23T12:31:48.963Z,9.01
2017-12-23T12:34:16.536Z,9.07
2017-12-23T12:36:44.112Z,9.05
2017-12-23T12:39:11.695Z,9.02
2017-12-23T12:41:39.276Z,9.10
2017-12-23T12:44:06.852Z,9.12
2017-12-23T12:46:34.472Z,9.04
2017-12-23T12:49:02.141Z,9.06
2017-12-23T12:51:29.715Z,9.08
2017-12-23T12:53:57.298Z,9.05
2017-12-23T12:56:24.930Z,8.98
2017-12-23T12:58:52.508Z,9.03
2017-12-23T13:01:20.083Z,8.94
2017-12-23T13:03:47.656Z,8.93
2017-12-23T13:06:15.232Z,8.88
2017-12-23T13:08:42.804Z,8.91
2017-12-23T13:11:10.381Z,8.92
2017-12-23T13:13:37.954Z,8.92
2017-12-23T13:16:05.527Z,8.96
2017-12-23T13:18:33.100Z,9.01
2017-12-23T13:21:00.672Z,8.98
2017-12-23T13:23:28.281Z,8.92
2017-12-23T13:25:55.860Z,8.97
2017-12-23T13:28:23.528Z,8.94
2017-12-23T13:30:51.106Z,8.94
2017-12-23T13:33:18.744Z,8.97
2017-12-23T13:35:46.315Z,8.95
2017-12-23T13:38:13.880Z,8.98
2017-12-23T13:40:41.456Z,8.97
2017-12-23T13:43:09.037Z,9.10
2017-12-23T13:45:36.612Z,9.07
2017-12-23T13:48:04.186Z,9.09
2017-12-23T13:50:31.763Z,9.12
2017-12-23T13:52:59.331Z,9.12
2017-12-23T13:55:26.996Z,9.15
2017-12-23T13:57:54.656Z,9.18
2017-12-23T14:00:22.226Z,9.14
2017-12-23T14:02:49.883Z,9.19
2017-12-23T14:05:17.540Z,9.21
2017-12-23T14:07:45.219Z,9.23
2017-12-23T14:10:13.776Z,9.23
2017-12-23T14:12:41.351Z,9.21
2017-12-23T14:15:08.976Z,9.21
2017-12-23T14:17:36.551Z,9.17
2017-12-23T14:20:04.240Z,9.23
2017-12-23T14:22:31.899Z,9.20
2017-12-23T14:24:59.489Z,9.19
2017-12-23T14:27:27.111Z,9.26
2017-12-23T14:29:54.791Z,9.28
2017-12-23T14:32:22.371Z,9.24
2017-12-23T14:34:49.943Z,9.26
2017-12-23T14:37:17.516Z,9.29
2017-12-23T14:39:45.088Z,9.26
2017-12-23T14:42:12.659Z,9.29
2017-12-23T14:44:40.236Z,9.30
2017-12-23T14:47:07.820Z,9.27
2017-12-23T14:49:35.426Z,9.26
2017-12-23T14:52:03.025Z,9.26
2017-12-23T14:54:30.604Z,9.32
2017-12-23T14:56:58.262Z,9.28
2017-12-23T14:59:25.884Z,9.31
2017-12-23T15:01:53.467Z,9.27
2017-12-23T15:04:21.043Z,9.24
2017-12-23T15:06:49.295Z,9.27
2017-12-23T15:09:16.886Z,9.32
2017-12-23T15:11:44.495Z,9.30
2017-12-23T15:14:12.066Z,9.29
2017-12-23T15:16:39.650Z,9.31
2017-12-23T15:19:07.231Z,9.26
2017-12-23T15:21:34.927Z,9.32
2017-12-23T15:24:02.504Z,9.26
2017-12-23T15:26:30.084Z,9.25
2017-12-23T15:28:57.665Z,9.30
2017-12-23T15:31:25.252Z,9.34
2017-12-23T15:33:52.828Z,9.33
2017-12-23T15:36:21.315Z,9.30
2017-12-23T15:38:48.905Z,9.32
2017-12-23T15:41:16.486Z,9.30
2017-12-23T15:43:44.063Z,9.31
2017-12-23T15:46:11.643Z,9.36
2017-12-23T15:48:39.219Z,9.29
2017-12-23T15:51:06.796Z,9.34
2017-12-23T15:53:34.376Z,9.22
2017-12-23T15:56:01.987Z,9.31
2017-12-23T15:58:29.571Z,9.29
2017-12-23T16:00:57.151Z,9.24
2017-12-23T16:03:24.728Z,9.28
2017-12-23T16:05:52.298Z,9.32
2017-12-23T16:08:19.879Z,9.36
2017-12-23T16:10:47.451Z,9.34
2017-12-23T16:13:15.071Z,9.37
2017-12-23T16:15:42.651Z,9.44
2017-12-23T16:18:10.272Z,9.35
2017-12-23T16:20:37.888Z,9.31
2017-12-23T16:23:05.463Z,9.30
2017-12-23T16:25:33.040Z,9.37
2017-12-23T16:28:00.661Z,9.35
2017-12-23T16:30:28.292Z,9.36
2017-12-23T16:32:55.875Z,9.40
2017-12-23T16:35:23.515Z,9.40
2017-12-23T16:37:51.148Z,9.42
2017-12-23T16:40:18.810Z,9.36
2017-12-23T16:42:46.440Z,9.39
2017-12-23T16:45:14.120Z,9.43
2017-12-23T16:47:42.888Z,9.40
2017-12-23T16:50:10.467Z,9.35
2017-12-23T16:52:38.048Z,9.41
2017-12-23T16:55:05.659Z,9.37
2017-12-23T16:57:33.246Z,9.40
2017-12-23T17:00:00.832Z,9.38
2017-12-23T17:02:28.416Z,9.39
2017-12-23T17:04:56.040Z,9.38
2017-12-23T17:07:23.614Z,9.44
2017-12-23T17:09:51.195Z,9.49
2017-12-23T17:12:18.772Z,9.43
2017-12-23T17:14:46.954Z,9.41
2017-12-23T17:17:14.643Z,9.46
2017-12-23T17:19:42.302Z,9.53
2017-12-23T17:22:09.931Z,9.45
2017-12-23T17:24:37.519Z,9.41
2017-12-23T17:27:05.103Z,9.38
2017-12-23T17:29:44.273Z,9.31
2017-12-23T17:32:11.867Z,9.30
2017-12-23T17:34:39.461Z,9.30
2017-12-23T17:37:07.058Z,9.24
2017-12-23T17:39:34.641Z,9.10
2017-12-23T17:42:02.223Z,9.11
2017-12-23T17:44:29.813Z,9.09
2017-12-23T17:46:57.387Z,9.06
2017-12-23T17:49:24.967Z,9.03
2017-12-23T17:51:52.548Z,9.00
2017-12-23T17:54:20.138Z,8.94
2017-12-23T17:56:47.714Z,8.92
2017-12-23T17:59:15.293Z,8.96
2017-12-23T18:01:42.871Z,8.92
2017-12-23T18:04:10.449Z,8.96
2017-12-23T18:06:38.048Z,8.94
2017-12-23T18:09:06.240Z,8.93
2017-12-23T18:11:33.827Z,8.91
2017-12-23T18:14:01.451Z,8.91
2017-12-23T18:16:29.139Z,8.91
2017-12-23T18:18:56.720Z,9.04
2017-12-23T18:21:24.404Z,9.11
2017-12-23T18:23:52.095Z,9.14
2017-12-23T18:26:19.754Z,9.18
2017-12-23T18:28:47.336Z,9.22
2017-12-23T18:31:14.975Z,9.21
2017-12-23T18:33:42.639Z,9.26
2017-12-23T18:36:10.304Z,9.24
2017-12-23T18:38:37.968Z,9.24
2017-12-23T18:41:05.559Z,9.20
2017-12-23T18:43:33.227Z,9.21
2017-12-23T18:46:00.813Z,9.15
2017-12-23T18:48:28.418Z,9.09
2017-12-23T18:50:56.012Z,9.09
2017-12-23T18:53:23.644Z,9.09
2017-12-23T18:55:51.232Z,9.08
2017-12-23T18:58:18.849Z,9.00
2017-12-23T19:00:46.528Z,8.93
2017-12-23T19:03:14.196Z,8.91
2017-12-23T19:05:41.851Z,8.93
2017-12-23T19:08:10.184Z,8.95
2017-12-23T19:10:37.764Z,8.88
2017-12-23T19:13:05.455Z,8.85
2017-12-23T19:15:33.119Z,8.90
2017-12-23T19:18:00.704Z,8.93
2017-12-23T19:20:29.056Z,8.92
2017-12-23T19:22:56.756Z,8.94
2017-12-23T19:25:24.384Z,8.96
2017-12-23T19:27:52.092Z,9.04
2017-12-23T19:30:19.673Z,8.98
2017-12-23T19:32:47.256Z,9.08
2017-12-23T19:35:14.932Z,9.04
2017-12-23T19:37:42.596Z,9.07
2017-12-23T19:40:10.281Z,9.05
2017-12-23T19:42:38.032Z,9.15
2017-12-23T19:45:05.692Z,9.11
2017-12-23T19:47:33.272Z,9.17
2017-12-23T19:50:00.918Z,9.11
2017-12-23T19:52:28.504Z,9.19
2017-12-23T19:54:56.140Z,9.27
2017-12-23T19:57:23.798Z,9.26
2017-12-23T19:59:51.464Z,9.30
2017-12-23T20:02:19.128Z,9.27
2017-12-23T20:04:46.825Z,9.25
2017-12-23T20:07:14.405Z,9.33
2017-12-23T20:09:41.988Z,9.37
2017-12-23T20:12:09.680Z,9.44
2017-12-23T20:14:37.310Z,9.47
2017-12-23T20:17:04.929Z,9.42
2017-12-23T20:19:32.528Z,9.46
2017-12-23T20:22:01.239Z,9.56
2017-12-23T20:24:29.063Z,9.56
2017-12-23T20:26:56.836Z,9.58
2017-12-23T20:32:11.776Z,9.57
2017-12-23T20:34:46.619Z,9.61
2017-12-23T20:37:18.019Z,9.62
2017-12-23T20:39:45.876Z,9.66
2017-12-23T20:42:13.584Z,9.68
2017-12-23T20:44:41.248Z,9.65
2017-12-23T20:47:08.909Z,9.63
2017-12-23T20:49:36.492Z,9.60
2017-12-23T20:52:04.113Z,9.67
2017-12-23T20:54:31.735Z,9.64
2017-12-23T20:56:59.315Z,9.65
2017-12-23T20:59:26.915Z,9.66
2017-12-23T21:01:54.612Z,9.62
2017-12-23T21:04:22.248Z,9.58
2017-12-23T21:06:49.832Z,9.60
2017-12-23T21:09:20.948Z,9.63
2017-12-23T21:11:53.475Z,9.63
2017-12-23T21:14:21.168Z,9.63
2017-12-23T21:16:48.885Z,9.61
2017-12-23T21:19:18.045Z,9.64
2017-12-23T21:21:46.641Z,9.70
2017-12-23T21:24:14.944Z,9.71
2017-12-23T21:26:42.625Z,9.64
2017-12-23T21:29:12.587Z,9.63
2017-12-23T21:31:42.168Z,9.56
2017-12-23T21:34:10.899Z,9.62
2017-12-23T21:36:40.480Z,9.63
2017-12-23T21:39:09.329Z,9.57
2017-12-23T21:41:36.918Z,9.62
2017-12-23T21:44:04.795Z,9.61
2017-12-23T21:46:33.355Z,9.64
2017-12-23T21:49:01.856Z,9.64
2017-12-23T21:51:30.372Z,9.66
2017-12-23T21:53:59.028Z,9.56
2017-12-23T21:56:27.220Z,9.63
2017-12-23T21:58:56.665Z,9.68
2017-12-23T22:01:27.476Z,9.68
2017-12-23T22:03:55.191Z,9.65
2017-12-23T22:06:22.833Z,9.73
2017-12-23T22:08:51.356Z,9.75
2017-12-23T22:11:21.719Z,9.72
2017-12-23T22:13:51.737Z,9.75
2017-12-23T22:16:20.082Z,9.82
2017-12-23T22:18:47.692Z,9.73
2017-12-23T22:21:17.214Z,9.69
2017-12-23T22:23:45.292Z,9.73
2017-12-23T22:26:13.866Z,9.70
2017-12-23T22:28:41.540Z,9.77
2017-12-23T22:31:10.145Z,9.69
2017-12-23T22:33:38.692Z,9.66
2017-12-23T22:36:06.326Z,9.60
2017-12-23T22:38:34.991Z,9.55
2017-12-23T22:41:03.434Z,9.52
2017-12-23T22:43:31.019Z,9.56
2017-12-23T22:46:00.028Z,9.59
2017-12-23T22:48:27.606Z,9.66
2017-12-23T22:50:56.087Z,9.72
2017-12-23T22:53:23.756Z,9.72
2017-12-23T22:55:51.423Z,9.71
2017-12-23T22:58:20.015Z,9.72
2017-12-23T23:00:49.711Z,9.73
2017-12-23T23:03:18.728Z,9.73
2017-12-23T23:05:46.418Z,9.76
2017-12-23T23:08:15.303Z,9.74
2017-12-23T23:10:43.434Z,9.84
2017-12-23T23:13:13.979Z,9.75
2017-12-23T23:15:43.252Z,9.79
2017-12-23T23:18:11.026Z,9.77
2017-12-23T23:20:39.787Z,9.76
2017-12-23T23:23:07.406Z,9.77
2017-12-23T23:25:34.978Z,9.79
2017-12-23T23:28:02.708Z,9.81
2017-12-23T23:30:30.286Z,9.85
2017-12-23T23:32:57.888Z,9.77
2017-12-23T23:35:25.466Z,9.77
2017-12-23T23:37:53.047Z,9.69
2017-12-23T23:40:20.671Z,9.73
2017-12-23T23:42:48.283Z,9.68
2017-12-23T23:45:16.075Z,9.65
2017-12-23T23:47:43.659Z,9.69
2017-12-23T23:50:11.236Z,9.70
2017-12-23T23:52:38.811Z,9.74
2017-12-23T23:55:06.487Z,9.73
2017-12-23T23:57:34.150Z,9.71
